createdAt,value
2023-05-23T00:11:27.142Z,18.50
2023-05-23T00:26:30.399Z,18.40
2023-05-23T00:41:33.155Z,18.50
2023-05-23T00:56:36.790Z,18.30
2023-05-23T01:11:52.162Z,17.80
2023-05-23T01:27:08.529Z,17.40
2023-05-23T01:42:11.131Z,17.30
2023-05-23T01:57:14.024Z,17.30
2023-05-23T02:12:16.501Z,16.50
2023-05-23T02:27:19.327Z,16.70
2023-05-23T02:42:21.847Z,17.00
2023-05-23T02:57:24.729Z,16.80
2023-05-23T03:12:29.089Z,16.70
2023-05-23T03:27:32.576Z,18.00
2023-05-23T03:42:34.978Z,17.00
2023-05-23T03:57:37.667Z,16.80
2023-05-23T04:12:41.642Z,16.70
2023-05-23T04:27:48.969Z,16.10
2023-05-23T04:42:51.772Z,16.00
2023-05-23T04:58:05.558Z,16.20
2023-05-23T05:13:08.077Z,16.20
2023-05-23T05:28:19.370Z,16.10
2023-05-23T05:43:27.892Z,15.90
2023-05-23T05:58:30.686Z,16.10
2023-05-23T06:13:36.853Z,16.10
2023-05-23T06:28:40.333Z,15.70
2023-05-23T06:43:42.952Z,15.70
2023-05-23T06:58:58.740Z,15.10
2023-05-23T07:14:02.477Z,15.80
2023-05-23T07:29:19.894Z,15.90
2023-05-23T07:44:25.279Z,15.40
2023-05-23T07:59:30.244Z,15.40
2023-05-23T08:14:49.831Z,15.70
2023-05-23T08:30:08.604Z,14.50
2023-05-23T08:45:12.157Z,14.40
2023-05-23T09:00:16.589Z,14.30
2023-05-23T09:15:19.817Z,14.20
2023-05-23T09:30:22.564Z,14.60
2023-05-23T09:45:31.303Z,14.30
2023-05-23T10:00:36.298Z,14.10
2023-05-23T10:15:40.924Z,14.30
2023-05-23T10:30:46.030Z,14.60
2023-05-23T10:45:50.670Z,14.80
2023-05-23T11:01:00.352Z,17.40
2023-05-23T11:16:31.025Z,16.50
2023-05-23T11:31:40.773Z,16.40
2023-05-23T11:47:02.529Z,17.30
2023-05-23T12:02:06.961Z,16.70
2023-05-23T12:17:11.374Z,16.90
2023-05-23T12:32:14.082Z,17.20
2023-05-23T12:47:16.653Z,16.90
2023-05-23T13:02:19.704Z,16.90
2023-05-23T13:17:22.617Z,17.50
2023-05-23T13:32:26.505Z,17.00
2023-05-23T13:47:29.544Z,17.70
2023-05-23T14:02:32.164Z,17.30
2023-05-23T14:17:34.721Z,18.60
2023-05-23T14:32:41.281Z,18.70
2023-05-23T14:47:44.054Z,18.70
2023-05-23T15:02:46.710Z,17.10
2023-05-23T15:17:51.016Z,17.50
2023-05-23T15:32:57.349Z,17.20
2023-05-23T15:48:01.165Z,18.10
2023-05-23T16:03:03.856Z,18.20
2023-05-23T16:18:06.308Z,18.10
2023-05-23T16:33:08.964Z,16.90
2023-05-23T16:48:11.678Z,17.60
2023-05-23T17:03:14.188Z,16.80
2023-05-23T17:18:17.402Z,16.80
2023-05-23T17:33:20.383Z,16.60
2023-05-23T17:48:34.398Z,16.30
2023-05-23T18:03:45.946Z,16.10
2023-05-23T18:18:48.703Z,15.60
2023-05-23T18:51:49.398Z,14.80
2023-05-23T19:59:21.537Z,13.40
2023-05-23T20:14:23.977Z,13.50
2023-05-23T20:29:56.578Z,13.60
2023-05-23T20:45:17.070Z,13.40
